createdAt,value
2018-03-17T00:00:09.294Z,4.50
2018-03-17T00:02:36.733Z,4.50
2018-03-17T00:05:04.170Z,4.10
2018-03-17T00:07:32.374Z,4.10
2018-03-17T00:09:59.854Z,4.10
2018-03-17T00:12:27.283Z,3.90
2018-03-17T00:14:54.748Z,4.10
2018-03-17T00:17:22.197Z,4.00
2018-03-17T00:19:49.637Z,4.10
2018-03-17T00:22:17.087Z,4.30
2018-03-17T00:24:45.331Z,4.00
2018-03-17T00:27:12.736Z,4.00
2018-03-17T00:29:40.164Z,4.00
2018-03-17T00:32:08.385Z,4.10
2018-03-17T00:34:35.821Z,4.10
2018-03-17T00:37:03.278Z,4.50
2018-03-17T00:39:30.734Z,4.60
2018-03-17T00:41:58.937Z,4.30
2018-03-17T00:44:26.409Z,4.30
2018-03-17T00:46:53.869Z,4.20
2018-03-17T00:49:21.313Z,4.10
2018-03-17T00:51:49.666Z,4.20
2018-03-17T00:54:17.115Z,4.30
2018-03-17T00:56:45.331Z,4.40
2018-03-17T00:59:12.748Z,4.30
2018-03-17T01:01:40.964Z,4.00
2018-03-17T01:04:09.244Z,4.00
2018-03-17T01:06:36.690Z,3.90
2018-03-17T01:09:04.160Z,3.70
2018-03-17T01:11:31.594Z,3.70
2018-03-17T01:13:59.035Z,3.80
2018-03-17T01:16:27.233Z,3.90
2018-03-17T01:18:54.676Z,3.90
2018-03-17T01:21:22.117Z,3.80
2018-03-17T01:23:49.727Z,4.10
2018-03-17T01:26:17.946Z,4.10
2018-03-17T01:28:45.381Z,4.00
2018-03-17T01:31:13.446Z,4.00
2018-03-17T01:33:40.890Z,4.00
2018-03-17T01:36:08.332Z,4.10
2018-03-17T01:38:35.789Z,3.60
2018-03-17T01:41:03.224Z,3.80
2018-03-17T01:43:30.694Z,3.70
2018-03-17T01:45:58.137Z,3.80
2018-03-17T01:48:26.330Z,4.00
2018-03-17T01:50:53.777Z,3.90
2018-03-17T01:53:21.212Z,3.90
2018-03-17T01:55:50.354Z,4.10
2018-03-17T01:58:17.786Z,4.10
2018-03-17T02:00:45.216Z,3.60
2018-03-17T02:03:13.420Z,3.60
2018-03-17T02:05:40.889Z,3.60
2018-03-17T02:08:08.349Z,3.20
2018-03-17T02:10:35.789Z,3.30
2018-03-17T02:13:03.238Z,3.40
2018-03-17T02:15:31.457Z,3.50
2018-03-17T02:17:58.903Z,3.40
2018-03-17T02:20:26.351Z,3.50
2018-03-17T02:22:53.794Z,3.40
2018-03-17T02:25:21.277Z,3.40
2018-03-17T02:27:48.716Z,3.60
2018-03-17T02:30:16.162Z,3.40
2018-03-17T02:32:43.641Z,3.70
2018-03-17T02:35:11.094Z,4.00
2018-03-17T02:37:38.540Z,3.50
2018-03-17T02:40:05.973Z,3.50
2018-03-17T02:42:34.169Z,3.30
2018-03-17T02:45:01.597Z,3.30
2018-03-17T02:47:29.029Z,3.40
2018-03-17T02:49:56.454Z,3.50
2018-03-17T02:52:23.897Z,3.60
2018-03-17T02:54:51.370Z,3.40
2018-03-17T02:57:18.996Z,3.50
2018-03-17T02:59:47.231Z,3.40
2018-03-17T03:02:14.747Z,3.40
2018-03-17T03:04:42.976Z,3.70
2018-03-17T03:07:10.414Z,3.70
2018-03-17T03:09:37.882Z,3.60
2018-03-17T03:12:05.325Z,3.50
2018-03-17T03:14:32.765Z,3.60
2018-03-17T03:17:00.196Z,3.80
2018-03-17T03:19:28.412Z,3.50
2018-03-17T03:21:55.832Z,3.50
2018-03-17T03:24:24.035Z,3.20
2018-03-17T03:26:51.498Z,3.20
2018-03-17T03:29:18.935Z,3.20
2018-03-17T03:31:46.385Z,3.40
2018-03-17T03:34:14.590Z,3.30
2018-03-17T03:36:42.030Z,3.20
2018-03-17T03:39:09.483Z,3.10
2018-03-17T03:41:37.665Z,3.60
2018-03-17T03:44:05.418Z,3.60
2018-03-17T03:46:33.649Z,3.50
2018-03-17T03:49:01.102Z,3.50
2018-03-17T03:51:28.549Z,3.60
2018-03-17T03:53:56.002Z,3.50
2018-03-17T03:56:23.433Z,3.50
2018-03-17T03:58:50.863Z,3.20
2018-03-17T04:01:19.591Z,3.30
2018-03-17T04:03:47.922Z,3.30
2018-03-17T04:06:15.351Z,3.20
2018-03-17T04:08:42.804Z,3.10
2018-03-17T04:11:10.245Z,3.20
2018-03-17T04:13:37.677Z,3.30
2018-03-17T04:16:05.161Z,3.20
2018-03-17T04:18:32.648Z,3.10
2018-03-17T04:21:00.087Z,3.20
2018-03-17T04:23:27.534Z,3.30
2018-03-17T04:25:54.952Z,3.10
2018-03-17T04:28:23.162Z,3.00
2018-03-17T04:30:50.602Z,3.00
2018-03-17T04:33:18.043Z,2.90
2018-03-17T04:35:46.922Z,3.20
2018-03-17T04:38:15.167Z,3.50
2018-03-17T04:40:42.597Z,3.50
2018-03-17T04:43:10.046Z,3.40
2018-03-17T04:45:37.497Z,3.40
2018-03-17T04:48:04.936Z,3.10
2018-03-17T04:50:33.211Z,3.00
2018-03-17T04:53:00.639Z,3.00
2018-03-17T04:55:28.077Z,3.00
2018-03-17T04:57:55.508Z,3.30
2018-03-17T05:00:22.946Z,3.30
2018-03-17T05:02:51.158Z,3.10
2018-03-17T05:05:18.592Z,3.10
2018-03-17T05:07:46.042Z,2.90
2018-03-17T05:10:14.237Z,3.20
2018-03-17T05:12:41.653Z,3.20
2018-03-17T05:15:09.980Z,3.20
2018-03-17T05:17:37.417Z,2.80
2018-03-17T05:20:04.892Z,2.70
2018-03-17T05:22:32.326Z,2.60
2018-03-17T05:25:00.510Z,2.70
2018-03-17T05:27:27.981Z,2.70
2018-03-17T05:29:55.424Z,2.90
2018-03-17T05:32:22.852Z,2.70
2018-03-17T05:34:51.080Z,2.50
2018-03-17T05:37:18.507Z,2.50
2018-03-17T05:39:45.970Z,2.70
2018-03-17T05:42:13.406Z,2.90
2018-03-17T05:44:41.605Z,2.10
2018-03-17T05:47:09.038Z,2.10
2018-03-17T05:49:37.316Z,2.70
2018-03-17T05:52:04.766Z,2.70
2018-03-17T05:54:32.956Z,2.40
2018-03-17T05:57:01.159Z,2.40
2018-03-17T05:59:28.589Z,2.40
2018-03-17T06:01:56.786Z,2.00
2018-03-17T06:04:24.257Z,2.00
2018-03-17T06:06:51.714Z,2.10
2018-03-17T06:09:19.172Z,2.30
2018-03-17T06:11:46.609Z,2.20
2018-03-17T06:14:14.052Z,2.20
2018-03-17T06:16:42.253Z,2.00
2018-03-17T06:19:09.681Z,2.00
2018-03-17T06:21:37.889Z,2.20
2018-03-17T06:24:05.313Z,2.20
2018-03-17T06:26:33.531Z,2.40
2018-03-17T06:29:00.959Z,2.40
2018-03-17T06:31:28.428Z,2.10
2018-03-17T06:33:55.875Z,2.10
2018-03-17T06:36:23.365Z,2.20
2018-03-17T06:38:51.532Z,2.00
2018-03-17T06:41:19.845Z,2.00
2018-03-17T06:43:47.289Z,1.80
2018-03-17T06:46:14.729Z,1.90
2018-03-17T06:48:42.181Z,2.00
2018-03-17T06:51:09.650Z,2.10
2018-03-17T06:53:37.108Z,2.30
2018-03-17T06:56:04.576Z,2.50
2018-03-17T06:58:32.026Z,2.30
2018-03-17T07:00:59.465Z,2.20
2018-03-17T07:03:26.880Z,2.40
2018-03-17T07:05:55.498Z,2.30
2018-03-17T07:08:23.227Z,2.30
2018-03-17T07:10:50.638Z,2.00
2018-03-17T07:13:18.083Z,2.20
2018-03-17T07:15:45.521Z,2.10
2018-03-17T07:18:13.738Z,2.00
2018-03-17T07:20:41.189Z,1.90
2018-03-17T07:23:08.625Z,2.10
2018-03-17T07:25:36.054Z,1.80
2018-03-17T07:28:04.252Z,1.90
2018-03-17T07:30:33.581Z,1.90
2018-03-17T07:33:01.019Z,2.00
2018-03-17T07:35:28.455Z,1.60
2018-03-17T07:37:55.886Z,1.80
2018-03-17T07:40:23.326Z,1.80
2018-03-17T07:42:50.797Z,2.00
2018-03-17T07:45:18.288Z,2.00
2018-03-17T07:47:45.662Z,2.20
2018-03-17T07:50:13.103Z,2.20
2018-03-17T07:52:40.540Z,2.30
2018-03-17T07:55:08.729Z,2.30
2018-03-17T07:57:36.928Z,2.20
2018-03-17T08:00:04.352Z,2.20
2018-03-17T08:02:32.561Z,2.20
2018-03-17T08:04:59.987Z,2.20
2018-03-17T08:07:28.206Z,2.20
2018-03-17T08:09:55.630Z,2.10
2018-03-17T08:12:23.129Z,2.20
2018-03-17T08:14:50.613Z,1.80
2018-03-17T08:17:18.065Z,2.10
2018-03-17T08:19:45.501Z,1.80
2018-03-17T08:22:12.991Z,1.80
2018-03-17T08:24:40.408Z,1.90
2018-03-17T08:27:07.862Z,1.90
2018-03-17T08:29:35.305Z,1.90
2018-03-17T08:32:02.757Z,2.00
2018-03-17T08:34:30.190Z,2.30
2018-03-17T08:36:58.413Z,2.10
2018-03-17T08:39:25.877Z,2.10
2018-03-17T08:41:53.292Z,2.20
2018-03-17T08:44:21.502Z,2.10
2018-03-17T08:46:48.932Z,2.10
2018-03-17T08:49:16.380Z,2.10
2018-03-17T08:51:44.569Z,1.70
2018-03-17T08:54:12.056Z,1.60
2018-03-17T08:56:39.469Z,1.90
2018-03-17T08:59:07.660Z,2.10
2018-03-17T09:01:35.097Z,2.10
2018-03-17T09:04:03.291Z,2.30
2018-03-17T09:06:30.745Z,2.30
2018-03-17T09:08:58.234Z,2.20
2018-03-17T09:11:25.636Z,1.90
2018-03-17T09:13:53.848Z,2.40
2018-03-17T09:16:21.275Z,2.40
2018-03-17T09:18:49.482Z,2.30
2018-03-17T09:21:16.949Z,2.30
2018-03-17T09:23:44.357Z,2.50
2018-03-17T09:26:12.573Z,2.10
2018-03-17T09:28:40.012Z,2.00
2018-03-17T09:31:07.458Z,1.80
2018-03-17T09:33:35.661Z,1.60
2018-03-17T09:36:03.090Z,1.60
2018-03-17T09:38:31.281Z,1.80
2018-03-17T09:40:58.717Z,1.80
2018-03-17T09:43:26.931Z,2.40
2018-03-17T09:45:54.370Z,2.40
2018-03-17T09:48:21.845Z,2.50
2018-03-17T09:50:49.280Z,2.40
2018-03-17T09:53:17.508Z,2.40
2018-03-17T09:55:44.926Z,2.30
2018-03-17T09:58:12.357Z,2.40
2018-03-17T10:00:40.571Z,2.10
2018-03-17T10:03:08.058Z,2.00
2018-03-17T10:05:35.514Z,2.30
2018-03-17T10:08:02.958Z,2.00
2018-03-17T10:10:30.395Z,2.20
2018-03-17T10:12:57.834Z,2.20
2018-03-17T10:15:25.269Z,2.30
2018-03-17T10:17:53.509Z,2.40
2018-03-17T10:20:20.962Z,2.40
2018-03-17T10:22:48.411Z,2.60
2018-03-17T10:25:15.886Z,3.00
2018-03-17T10:27:43.342Z,3.40
2018-03-17T10:30:10.775Z,3.10
2018-03-17T10:32:38.211Z,2.70
2018-03-17T10:35:05.661Z,2.50
2018-03-17T10:37:33.847Z,2.50
2018-03-17T10:40:01.291Z,2.50
2018-03-17T10:42:29.498Z,2.60
2018-03-17T10:44:56.925Z,2.60
2018-03-17T10:47:24.360Z,2.70
2018-03-17T10:49:51.903Z,2.90
2018-03-17T10:52:19.341Z,2.80
2018-03-17T10:54:46.822Z,2.70
2018-03-17T10:57:14.265Z,2.90
2018-03-17T10:59:41.690Z,2.80
2018-03-17T11:02:10.034Z,2.70
2018-03-17T11:04:38.295Z,2.80
2018-03-17T11:07:05.738Z,2.80
2018-03-17T11:09:33.964Z,2.60
2018-03-17T11:12:01.406Z,2.80
2018-03-17T11:14:29.607Z,2.30
2018-03-17T11:16:57.037Z,2.20
2018-03-17T11:19:25.290Z,2.50
2018-03-17T11:21:52.731Z,2.50
2018-03-17T11:24:20.200Z,2.30
2018-03-17T11:26:47.645Z,2.30
2018-03-17T11:29:15.058Z,2.80
2018-03-17T11:31:42.515Z,2.90
2018-03-17T11:34:10.782Z,2.80
2018-03-17T11:36:38.992Z,2.70
2018-03-17T11:39:06.405Z,2.70
2018-03-17T11:41:34.614Z,2.70
2018-03-17T11:44:02.057Z,2.70
2018-03-17T11:46:30.261Z,2.70
2018-03-17T11:48:57.706Z,2.70
2018-03-17T11:51:25.142Z,2.90
2018-03-17T11:53:53.382Z,3.00
2018-03-17T11:56:20.818Z,3.00
2018-03-17T11:58:48.251Z,3.00
2018-03-17T12:01:15.735Z,3.10
2018-03-17T12:03:43.195Z,3.00
2018-03-17T12:06:10.616Z,3.10
2018-03-17T12:08:38.063Z,3.10
2018-03-17T12:11:06.271Z,2.90
2018-03-17T12:13:33.705Z,2.90
2018-03-17T12:16:01.135Z,2.70
2018-03-17T12:18:29.346Z,2.40
2018-03-17T12:20:56.766Z,2.40
2018-03-17T12:23:24.980Z,2.60
2018-03-17T12:25:52.415Z,2.60
2018-03-17T12:28:20.619Z,2.50
2018-03-17T12:30:48.055Z,2.40
2018-03-17T12:33:16.255Z,2.40
2018-03-17T12:35:43.690Z,2.40
2018-03-17T12:38:11.118Z,2.50
2018-03-17T12:40:39.327Z,2.20
2018-03-17T12:43:06.770Z,2.30
2018-03-17T12:45:34.970Z,2.30
2018-03-17T12:48:02.402Z,2.20
2018-03-17T12:50:30.581Z,2.30
2018-03-17T12:52:58.028Z,2.30
2018-03-17T12:55:26.218Z,2.30
2018-03-17T12:57:54.428Z,2.30
2018-03-17T13:00:21.862Z,2.30
2018-03-17T13:02:49.283Z,2.30
2018-03-17T13:05:17.489Z,2.30
2018-03-17T13:07:44.928Z,2.30
2018-03-17T13:10:13.144Z,1.90
2018-03-17T13:12:40.587Z,1.90
2018-03-17T13:15:08.053Z,1.70
2018-03-17T13:17:35.500Z,1.70
2018-03-17T13:20:02.921Z,1.90
2018-03-17T13:22:43.050Z,2.40
2018-03-17T13:25:10.474Z,2.40
2018-03-17T13:27:49.699Z,2.00
2018-03-17T13:30:17.142Z,2.10
2018-03-17T13:33:02.442Z,2.30
2018-03-17T13:35:42.433Z,2.10
2018-03-17T13:38:09.860Z,2.00
2018-03-17T13:40:44.254Z,2.20
2018-03-17T13:43:11.672Z,2.30
2018-03-17T13:45:39.872Z,2.10
2018-03-17T13:48:07.328Z,2.10
2018-03-17T13:50:35.540Z,1.80
2018-03-17T13:53:02.996Z,1.80
2018-03-17T13:55:30.413Z,2.00
2018-03-17T13:57:58.625Z,2.20
2018-03-17T14:00:26.045Z,2.20
2018-03-17T14:02:54.254Z,2.40
2018-03-17T14:05:21.689Z,2.30
2018-03-17T14:07:49.901Z,2.30
2018-03-17T14:10:17.337Z,2.30
2018-03-17T14:12:45.197Z,2.30
2018-03-17T14:15:12.621Z,2.20
2018-03-17T14:17:40.824Z,2.40
2018-03-17T14:20:08.393Z,2.40
2018-03-17T14:22:35.813Z,2.40
2018-03-17T14:25:04.033Z,2.50
2018-03-17T14:27:31.492Z,2.50
2018-03-17T14:29:58.905Z,2.00
2018-03-17T14:32:27.100Z,1.90
2018-03-17T14:34:54.535Z,1.90
2018-03-17T14:37:22.106Z,2.10
2018-03-17T14:39:49.488Z,2.10
2018-03-17T14:42:17.007Z,2.10
2018-03-17T14:44:44.515Z,2.10
2018-03-17T14:47:12.485Z,2.10
2018-03-17T14:49:39.940Z,2.40
2018-03-17T14:52:07.375Z,2.00
2018-03-17T14:54:35.578Z,2.10
2018-03-17T14:57:03.069Z,2.10
2018-03-17T14:59:30.531Z,2.00
2018-03-17T15:01:57.958Z,1.90
2018-03-17T15:04:25.398Z,2.20
2018-03-17T15:06:52.833Z,2.30
2018-03-17T15:09:21.040Z,2.10
2018-03-17T15:11:48.465Z,2.10
2018-03-17T15:14:16.693Z,1.80
2018-03-17T15:16:44.160Z,1.80
2018-03-17T15:19:11.584Z,1.90
2018-03-17T15:21:39.076Z,1.60
2018-03-17T15:24:06.502Z,1.60
2018-03-17T15:26:33.929Z,1.80
2018-03-17T15:29:02.133Z,2.20
2018-03-17T15:31:29.572Z,2.20
2018-03-17T15:33:57.050Z,2.10
2018-03-17T15:36:25.351Z,1.80
2018-03-17T15:38:52.793Z,1.80
2018-03-17T15:41:20.244Z,1.80
2018-03-17T15:43:47.662Z,1.70
2018-03-17T15:46:15.926Z,2.00
2018-03-17T15:48:43.337Z,1.90
2018-03-17T15:51:10.761Z,1.90
2018-03-17T15:53:38.944Z,1.90
2018-03-17T15:56:06.372Z,1.90
2018-03-17T15:58:33.822Z,1.80
2018-03-17T16:01:01.267Z,1.60
2018-03-17T16:03:28.710Z,1.60
2018-03-17T16:05:56.141Z,1.70
2018-03-17T16:08:23.632Z,1.70
2018-03-17T16:10:52.372Z,1.70
2018-03-17T16:13:20.583Z,1.90
2018-03-17T16:15:48.022Z,1.80
2018-03-17T16:18:15.465Z,1.70
2018-03-17T16:20:42.895Z,1.60
2018-03-17T16:23:10.344Z,1.60
2018-03-17T16:25:37.808Z,1.70
2018-03-17T16:28:05.242Z,1.60
2018-03-17T16:30:32.669Z,1.60
2018-03-17T16:33:00.143Z,1.60
2018-03-17T16:35:27.558Z,1.70
2018-03-17T16:37:55.784Z,1.70
2018-03-17T16:40:24.016Z,1.60
2018-03-17T16:42:51.750Z,1.60
2018-03-17T16:45:19.214Z,1.80
2018-03-17T16:47:46.616Z,1.80
2018-03-17T16:50:14.055Z,1.80
2018-03-17T16:52:41.491Z,1.50
2018-03-17T16:55:09.685Z,2.00
2018-03-17T16:57:37.162Z,2.00
2018-03-17T17:00:04.580Z,1.90
2018-03-17T17:02:32.777Z,1.60
2018-03-17T17:05:00.220Z,1.60
2018-03-17T17:07:28.409Z,2.00
2018-03-17T17:09:55.846Z,2.00
2018-03-17T17:12:24.092Z,1.80
2018-03-17T17:14:51.850Z,1.80
2018-03-17T17:17:19.337Z,1.80
2018-03-17T17:19:46.733Z,1.60
2018-03-17T17:22:14.168Z,1.30
2018-03-17T17:24:42.374Z,1.40
2018-03-17T17:27:09.797Z,1.40
2018-03-17T17:29:38.035Z,1.20
2018-03-17T17:32:05.445Z,1.20
2018-03-17T17:34:32.937Z,1.10
2018-03-17T17:37:00.374Z,1.50
2018-03-17T17:39:27.819Z,1.40
2018-03-17T17:41:55.313Z,1.20
2018-03-17T17:44:22.749Z,1.40
2018-03-17T17:46:50.217Z,1.60
2018-03-17T17:49:17.732Z,1.50
2018-03-17T17:51:45.101Z,1.40
2018-03-17T17:54:13.289Z,1.30
2018-03-17T17:56:40.730Z,1.30
2018-03-17T17:59:08.179Z,1.60
2018-03-17T18:01:36.418Z,1.60
2018-03-17T18:04:03.816Z,1.60
2018-03-17T18:06:32.017Z,1.60
2018-03-17T18:08:59.452Z,1.50
2018-03-17T18:11:26.896Z,1.70
2018-03-17T18:13:55.094Z,1.30
2018-03-17T18:16:22.530Z,1.30
2018-03-17T18:18:50.738Z,1.90
2018-03-17T18:21:18.165Z,1.90
2018-03-17T18:23:46.369Z,1.80
2018-03-17T18:26:13.828Z,1.80
2018-03-17T18:28:41.276Z,1.50
2018-03-17T18:31:08.807Z,1.50
2018-03-17T18:33:36.228Z,1.60
2018-03-17T18:36:03.668Z,1.60
2018-03-17T18:38:31.110Z,1.20
2018-03-17T18:40:58.577Z,1.40
2018-03-17T18:43:25.980Z,1.80
2018-03-17T18:45:53.431Z,1.50
2018-03-17T18:48:20.868Z,1.60
2018-03-17T18:50:48.319Z,1.70
2018-03-17T18:53:15.743Z,1.70
2018-03-17T18:55:43.197Z,1.60
2018-03-17T18:58:10.704Z,1.90
2018-03-17T19:00:38.127Z,1.70
2018-03-17T19:03:05.561Z,1.90
2018-03-17T19:05:33.042Z,1.70
2018-03-17T19:08:00.473Z,1.70
2018-03-17T19:10:28.694Z,1.50
2018-03-17T19:12:56.201Z,1.40
2018-03-17T19:15:24.406Z,1.70
2018-03-17T19:17:52.141Z,1.70
2018-03-17T19:20:20.402Z,1.50
2018-03-17T19:22:47.879Z,1.50
2018-03-17T19:25:15.314Z,1.80
2018-03-17T19:27:42.809Z,1.90
2018-03-17T19:30:10.250Z,1.80
2018-03-17T19:32:38.526Z,1.80
2018-03-17T19:35:05.922Z,1.80
2018-03-17T19:37:33.368Z,1.70
2018-03-17T19:40:00.846Z,1.70
2018-03-17T19:42:28.778Z,1.80
2018-03-17T19:44:57.088Z,2.00
2018-03-17T19:47:24.583Z,2.00
2018-03-17T19:49:52.260Z,1.70
2018-03-17T19:52:20.475Z,2.00
2018-03-17T19:54:47.908Z,2.00
2018-03-17T19:57:16.129Z,1.70
2018-03-17T19:59:43.562Z,1.70
2018-03-17T20:02:11.025Z,1.60
2018-03-17T20:04:38.494Z,1.70
2018-03-17T20:07:05.947Z,1.90
2018-03-17T20:09:33.374Z,1.80
2018-03-17T20:12:01.665Z,2.00
2018-03-17T20:14:29.086Z,2.30
2018-03-17T20:16:57.319Z,2.40
2018-03-17T20:19:24.795Z,2.40
2018-03-17T20:21:52.224Z,2.30
2018-03-17T20:24:19.688Z,2.20
2018-03-17T20:26:47.272Z,2.20
2018-03-17T20:29:14.717Z,2.30
2018-03-17T20:31:42.884Z,2.50
2018-03-17T20:34:10.340Z,2.30
2018-03-17T20:36:39.391Z,2.20
2018-03-17T20:39:06.832Z,2.20
2018-03-17T20:41:34.272Z,2.30
2018-03-17T20:44:01.727Z,2.40
2018-03-17T20:46:29.204Z,2.20
2018-03-17T20:48:57.425Z,2.20
2018-03-17T20:51:25.885Z,2.10
2018-03-17T20:53:54.109Z,1.70
2018-03-17T20:56:21.567Z,1.70
2018-03-17T20:58:49.006Z,1.90
2018-03-17T21:01:16.477Z,2.20
2018-03-17T21:03:43.979Z,2.10
2018-03-17T21:06:12.240Z,2.40
2018-03-17T21:08:40.483Z,2.40
2018-03-17T21:11:08.005Z,2.50
2018-03-17T21:13:35.500Z,2.40
2018-03-17T21:16:02.988Z,2.40
2018-03-17T21:18:30.473Z,2.10
2018-03-17T21:20:58.716Z,2.10
2018-03-17T21:23:26.184Z,2.10
2018-03-17T21:25:53.609Z,1.90
2018-03-17T21:28:21.048Z,2.40
2018-03-17T21:30:48.489Z,2.70
2018-03-17T21:33:16.685Z,2.10
2018-03-17T21:35:44.115Z,2.10
2018-03-17T21:38:12.441Z,2.10
2018-03-17T21:40:39.889Z,2.10
2018-03-17T21:43:07.472Z,2.00
2018-03-17T21:45:34.877Z,2.00
2018-03-17T21:48:02.305Z,1.90
2018-03-17T21:50:29.750Z,2.00
2018-03-17T21:52:57.186Z,2.10
2018-03-17T21:55:24.625Z,2.10
2018-03-17T21:57:52.346Z,2.00
2018-03-17T22:00:20.581Z,2.20
2018-03-17T22:02:48.000Z,2.20
2018-03-17T22:05:15.476Z,2.30
2018-03-17T22:07:42.899Z,2.10
2018-03-17T22:10:11.730Z,2.10
2018-03-17T22:12:39.164Z,2.10
2018-03-17T22:15:07.265Z,1.90
2018-03-17T22:17:34.713Z,1.90
2018-03-17T22:20:02.138Z,1.70
2018-03-17T22:22:30.356Z,1.80
2018-03-17T22:24:57.797Z,1.70
2018-03-17T22:27:25.261Z,1.50
2018-03-17T22:29:52.719Z,1.60
2018-03-17T22:32:20.158Z,1.70
2018-03-17T22:34:47.590Z,2.00
2018-03-17T22:37:15.792Z,2.30
2018-03-17T22:39:43.225Z,2.30
2018-03-17T22:42:10.672Z,2.30
2018-03-17T22:44:38.113Z,2.00
2018-03-17T22:47:05.573Z,2.00
2018-03-17T22:49:33.780Z,1.80
2018-03-17T22:52:02.003Z,2.10
2018-03-17T22:54:29.437Z,2.00
2018-03-17T22:56:56.948Z,1.80
2018-03-17T22:59:24.396Z,1.80
2018-03-17T23:01:52.563Z,2.00
2018-03-17T23:04:20.008Z,1.80
2018-03-17T23:06:47.450Z,1.90
2018-03-17T23:09:14.972Z,1.70
2018-03-17T23:11:43.416Z,1.50
2018-03-17T23:14:10.874Z,1.50
2018-03-17T23:16:38.314Z,1.50
2018-03-17T23:19:05.754Z,1.50
2018-03-17T23:21:33.192Z,1.70
2018-03-17T23:24:01.396Z,1.70
2018-03-17T23:26:32.692Z,1.70
2018-03-17T23:29:00.920Z,2.10
2018-03-17T23:31:28.348Z,2.10
2018-03-17T23:33:56.561Z,2.00
2018-03-17T23:36:24.035Z,2.00
2018-03-17T23:38:51.480Z,1.90
2018-03-17T23:41:18.945Z,1.80
2018-03-17T23:43:46.386Z,1.70
2018-03-17T23:46:13.824Z,1.70
2018-03-17T23:48:41.284Z,1.60
2018-03-17T23:51:08.705Z,1.50
2018-03-17T23:53:36.932Z,1.60
2018-03-17T23:56:04.361Z,1.60
2018-03-17T23:58:31.788Z,1.80
